Time;durP1;ratioP1;P1;durP2;ratioP2;P2;SDS_P1;SDS_P2;PMS_P1;PMS_P2;Temp;Humidity;BMP_temperature;BMP_pressure;BME280_temperature;BME280_humidity;BME280_pressure;Samples;Min_cycle;Max_cycle;Signal;HPM_P1;HPM_P2
2023/09/22 00:01:40;;;;;;;7.30;6.33;;;15.50;99.90;;;;;;4752466;30;20068;-95
2023/09/22 00:05:06;;;;;;;9.10;7.78;;;15.50;99.90;;;;;;4735515;30;20284;-95
2023/09/22 00:08:22;;;;;;;;;;;;;;;;;;;;;
2023/09/22 00:11:49;;;;;;;;;;;;;;;;;;;;;
2023/09/22 00:14:37;;;;;;;8.02;6.85;;;15.50;99.90;;;;;;4753658;30;20052;-96
2023/09/22 00:17:53;;;;;;;8.00;7.10;;;15.50;99.90;;;;;;4754065;30;20044;-94
2023/09/22 00:21:39;;;;;;;;;;;;;;;;;;;;;
2023/09/22 00:24:51;;;;;;;8.30;7.30;;;15.50;99.90;;;;;;4748856;30;20121;-95
2023/09/22 00:27:59;;;;;;;10.32;8.15;;;15.50;99.90;;;;;;4731467;30;20094;-94
2023/09/22 00:31:19;;;;;;;9.35;8.32;;;15.50;99.90;;;;;;4727662;30;20051;-95
2023/09/22 00:34:58;;;;;;;;;;;;;;;;;;;;;
2023/09/22 00:38:11;;;;;;;;;;;;;;;;;;;;;
2023/09/22 00:41:50;;;;;;;;;;;;;;;;;;;;;
2023/09/22 00:45:24;;;;;;;11.45;9.25;;;15.50;99.90;;;;;;4742683;30;20060;-95
2023/09/22 00:48:55;;;;;;;;;;;;;;;;;;;;;
2023/09/22 00:52:18;;;;;;;;;;;;;;;;;;;;;
2023/09/22 00:55:28;;;;;;;12.13;10.82;;;15.40;99.90;;;;;;4741170;30;20044;-95
2023/09/22 00:58:59;;;;;;;;;;;;;;;;;;;;;
2023/09/22 01:01:51;;;;;;;11.85;10.63;;;15.40;99.90;;;;;;4733418;30;20430;-96
2023/09/22 01:04:44;;;;;;;13.25;10.75;;;15.40;99.90;;;;;;4739511;30;20040;-96
2023/09/22 01:07:34;;;;;;;11.20;9.98;;;15.40;99.90;;;;;;4742380;30;20036;-95
2023/09/22 01:11:17;;;;;;;;;;;;;;;;;;;;;
2023/09/22 01:18:00;;;;;;;11.52;10.18;;;15.50;99.90;;;;;;4717073;30;20132;-95
2023/09/22 01:20:56;;;;;;;;;;;;;;;;;;;;;
2023/09/22 01:24:18;;;;;;;11.85;10.65;;;15.40;99.90;;;;;;4757193;30;20670;-96
2023/09/22 01:27:31;;;;;;;;;;;;;;;;;;;;;
2023/09/22 01:30:39;;;;;;;12.65;10.70;;;15.40;99.90;;;;;;4744078;30;20436;-95
2023/09/22 01:34:15;;;;;;;12.05;10.82;;;15.40;99.90;;;;;;4741432;30;20071;-95
2023/09/22 01:37:10;;;;;;;;;;;;;;;;;;;;;
2023/09/22 01:40:39;;;;;;;;;;;;;;;;;;;;;
2023/09/22 01:43:54;;;;;;;;;;;;;;;;;;;;;
2023/09/22 01:47:11;;;;;;;;;;;;;;;;;;;;;
2023/09/22 01:50:17;;;;;;;11.65;10.23;;;15.40;99.90;;;;;;4725096;30;20044;-96
2023/09/22 01:53:42;;;;;;;10.82;9.73;;;15.40;99.90;;;;;;4739378;30;20052;-96
2023/09/22 02:00:07;;;;;;;;;;;;;;;;;;;;;
2023/09/22 02:03:19;;;;;;;12.02;10.73;;;15.40;99.90;;;;;;4724339;30;19919;-95
2023/09/22 02:06:22;;;;;;;12.75;11.30;;;15.40;99.90;;;;;;4712897;30;20125;-95
2023/09/22 02:10:02;;;;;;;;;;;;;;;;;;;;;
2023/09/22 02:13:00;;;;;;;;;;;;;;;;;;;;;
2023/09/22 02:16:18;;;;;;;13.63;11.57;;;15.40;99.90;;;;;;4739460;30;20441;-95
2023/09/22 02:19:24;;;;;;;14.43;11.85;;;15.30;99.90;;;;;;4727246;30;20071;-96
2023/09/22 02:22:58;;;;;;;13.05;11.60;;;15.40;99.90;;;;;;4740086;30;20048;-96
2023/09/22 02:29:26;;;;;;;;;;;;;;;;;;;;;
2023/09/22 02:32:46;;;;;;;;;;;;;;;;;;;;;
2023/09/22 02:36:04;;;;;;;;;;;;;;;;;;;;;
2023/09/22 02:39:20;;;;;;;;;;;15.20;99.90;;;;;;4742958;30;20056;-96
2023/09/22 02:42:29;;;;;;;;;;;;;;;;;;;;;
2023/09/22 02:45:27;;;;;;;;;;;;;;;;;;;;;
2023/09/22 02:49:03;;;;;;;;;;;;;;;;;;;;;
2023/09/22 02:52:18;;;;;;;;;;;;;;;;;;;;;
2023/09/22 02:55:13;;;;;;;9.30;7.88;;;15.20;99.90;;;;;;4719338;30;20060;-96
2023/09/22 02:58:06;;;;;;;8.95;7.05;;;15.10;99.90;;;;;;4747061;30;20039;-96
2023/09/22 03:01:13;;;;;;;9.23;6.47;;;15.10;99.90;;;;;;4740638;30;20040;-95
2023/09/22 03:04:11;;;;;;;7.97;5.78;;;15.10;99.90;;;;;;4726614;30;20032;-95
2023/09/22 03:07:23;;;;;;;8.43;5.60;;;15.10;99.90;;;;;;4742630;30;20129;-95
2023/09/22 03:10:33;;;;;;;8.18;5.50;;;15.10;99.90;;;;;;4740144;30;20032;-95
2023/09/22 03:13:51;;;;;;;6.22;4.78;;;15.10;99.90;;;;;;4738841;30;20127;-95
2023/09/22 03:16:58;;;;;;;5.93;4.05;;;15.10;99.90;;;;;;4740402;30;20047;-95
2023/09/22 03:20:12;;;;;;;6.07;3.80;;;15.00;99.90;;;;;;4733518;30;20060;-94
2023/09/22 03:23:36;;;;;;;;;;;;;;;;;;;;;
2023/09/22 03:27:11;;;;;;;5.88;3.58;;;15.00;99.90;;;;;;4753775;30;20047;-95
2023/09/22 03:30:28;;;;;;;;;;;;;;;;;;;;;
2023/09/22 03:33:26;;;;;;;4.47;3.00;;;14.90;99.90;;;;;;4737298;30;20062;-96
2023/09/22 03:36:31;;;;;;;4.53;3.28;;;14.90;99.90;;;;;;4720188;30;20046;-96
2023/09/22 03:40:13;;;;;;;4.72;3.33;;;14.90;99.90;;;;;;4739088;30;20437;-95
2023/09/22 03:42:35;;;;;;;5.95;3.38;;;14.80;99.90;;;;;;4727432;30;20059;-95
2023/09/22 03:49:33;;;;;;;5.78;3.42;;;14.90;99.90;;;;;;4725274;30;20071;-96
2023/09/22 03:52:53;;;;;;;7.10;3.83;;;14.80;99.90;;;;;;4737334;30;20056;-95
2023/09/22 03:56:23;;;;;;;6.68;4.07;;;14.80;99.90;;;;;;4711732;30;20086;-96
2023/09/22 04:02:42;;;;;;;5.85;4.35;;;14.60;99.90;;;;;;4740062;30;20032;-95
2023/09/22 04:05:43;;;;;;;7.10;5.22;;;14.70;99.90;;;;;;4741573;30;20063;-96
2023/09/22 04:09:30;;;;;;;;;;;;;;;;;;;;;
2023/09/22 04:12:15;;;;;;;8.25;5.65;;;14.60;99.90;;;;;;4722254;30;20040;-95
2023/09/22 04:16:02;;;;;;;9.45;6.97;;;14.60;99.90;;;;;;4710510;30;20124;-96
2023/09/22 04:19:20;;;;;;;9.32;6.32;;;14.60;99.90;;;;;;4707717;30;20037;-96
2023/09/22 04:22:30;;;;;;;9.82;7.53;;;14.60;99.90;;;;;;4705643;30;20057;-95
2023/09/22 04:25:59;;;;;;;;;;;;;;;;;;;;;
2023/09/22 04:29:00;;;;;;;;;;;;;;;;;;;;;
2023/09/22 04:32:07;;;;;;;;;;;;;;;;;;;;;
2023/09/22 04:35:40;;;;;;;9.60;7.50;;;14.50;99.90;;;;;;4743416;30;20048;-96
2023/09/22 04:39:29;;;;;;;13.10;9.18;;;14.50;99.90;;;;;;4739299;30;20139;-96
2023/09/22 04:42:53;;;;;;;;;;;;;;;;;;;;;
2023/09/22 04:46:11;;;;;;;12.30;8.73;;;14.50;99.90;;;;;;4745496;30;20133;-96
2023/09/22 04:49:04;;;;;;;11.68;8.90;;;14.50;99.90;;;;;;4742505;30;20047;-95
2023/09/22 04:52:14;;;;;;;11.70;8.93;;;14.50;99.90;;;;;;4742476;30;20044;-94
2023/09/22 04:55:35;;;;;;;;;;;;;;;;;;;;;
2023/09/22 04:58:49;;;;;;;11.93;8.15;;;14.50;99.90;;;;;;4724446;30;20434;-96
2023/09/22 05:02:15;;;;;;;;;;;;;;;;;;;;;
2023/09/22 05:05:57;;;;;;;;;;;;;;;;;;;;;
2023/09/22 05:09:22;;;;;;;11.68;9.00;;;14.50;99.90;;;;;;4739740;30;20105;-94
2023/09/22 05:12:47;;;;;;;13.40;9.35;;;14.50;99.90;;;;;;4739657;30;20102;-94
2023/09/22 05:15:39;;;;;;;;;;;;;;;;;;;;;
2023/09/22 05:18:50;;;;;;;14.38;10.07;;;14.50;99.90;;;;;;4742840;30;20048;-94
2023/09/22 05:26:12;;;;;;;;;;;;;;;;;;;;;
2023/09/22 05:34:05;;;;;;;14.90;10.02;;;14.50;99.90;;;;;;4723462;30;20457;-95
2023/09/22 05:37:20;;;;;;;17.77;11.80;;;14.50;99.90;;;;;;4696965;30;20041;-93
2023/09/22 05:40:26;;;;;;;15.35;11.77;;;14.50;99.90;;;;;;4687923;30;20049;-94
2023/09/22 05:43:29;;;;;;;16.98;12.10;;;14.50;99.90;;;;;;4690352;30;20100;-94
2023/09/22 05:47:09;;;;;;;22.55;14.65;;;14.50;99.90;;;;;;4686311;30;20053;-96
2023/09/22 05:50:26;;;;;;;19.42;14.15;;;14.40;99.90;;;;;;4694283;30;20057;-96
2023/09/22 05:57:53;;;;;;;23.67;16.17;;;14.50;99.90;;;;;;4704798;30;20512;-95
2023/09/22 06:01:55;;;;;;;;;;;;;;;;;;;;;
2023/09/22 06:18:49;;;;;;;28.83;17.45;;;14.30;99.90;;;;;;4652968;30;20096;-96
2023/09/22 07:34:51;;;;;;;30.83;20.63;;;14.30;99.90;;;;;;4720270;30;20166;-96
2023/09/22 07:38:32;;;;;;;31.13;20.58;;;14.40;99.90;;;;;;4720328;30;20033;-95
2023/09/22 07:42:31;;;;;;;30.75;20.10;;;14.40;99.90;;;;;;4668360;30;20302;-95
2023/09/22 07:54:21;;;;;;;25.80;18.05;;;14.50;99.90;;;;;;4670417;30;20042;-95
2023/09/22 12:28:42;;;;;;;;;;;;;;;;;;;;;
2023/09/22 12:38:48;;;;;;;5.40;1.50;;;16.70;99.90;;;;;;642007;24;20337;-93
2023/09/22 12:42:14;;;;;;;;;;;;;;;;;;;;;
2023/09/22 12:48:30;;;;;;;2.65;1.10;;;16.80;99.90;;;;;;5014665;24;20046;-96
2023/09/22 12:51:02;;;;;;;3.28;1.40;;;16.70;99.90;;;;;;4758681;30;20520;-94
2023/09/22 12:53:41;;;;;;;4.57;1.00;;;16.70;99.90;;;;;;4746402;29;20047;-95
2023/09/22 12:56:24;;;;;;;4.07;1.05;;;16.70;99.90;;;;;;4747242;30;20377;-95
2023/09/22 12:59:23;;;;;;;2.70;1.00;;;16.70;99.90;;;;;;4781012;30;20035;-94
2023/09/22 13:02:22;;;;;;;2.53;1.00;;;16.70;99.90;;;;;;4762536;30;20047;-96
2023/09/22 13:05:05;;;;;;;1.85;0.98;;;16.80;99.90;;;;;;4788029;29;20108;-96
2023/09/22 13:07:37;;;;;;;2.00;0.88;;;16.80;99.90;;;;;;4775328;30;20043;-95
2023/09/22 13:10:24;;;;;;;2.17;0.80;;;16.80;99.90;;;;;;4749834;30;20351;-95
2023/09/22 13:12:58;;;;;;;3.10;0.95;;;16.80;99.90;;;;;;4763557;30;20039;-95
2023/09/22 13:15:34;;;;;;;5.18;1.30;;;16.90;99.90;;;;;;4749474;30;20055;-95
2023/09/22 13:18:32;;;;;;;5.75;1.60;;;16.90;99.90;;;;;;4753542;30;20137;-95
2023/09/22 13:21:12;;;;;;;2.80;1.40;;;16.90;99.90;;;;;;4746147;30;20472;-95
2023/09/22 13:24:02;;;;;;;2.60;1.20;;;16.90;99.90;;;;;;4775281;30;20036;-96
2023/09/22 13:27:15;;;;;;;4.70;1.15;;;16.90;99.90;;;;;;4751808;29;20043;-94
2023/09/22 13:29:56;;;;;;;3.83;1.10;;;16.90;99.90;;;;;;4749473;30;20112;-94
2023/09/22 13:32:46;;;;;;;2.63;0.98;;;16.80;99.90;;;;;;4763563;30;20067;-93
2023/09/22 13:35:42;;;;;;;2.65;0.80;;;16.80;99.90;;;;;;4762856;30;20047;-94
2023/09/22 13:38:40;;;;;;;;;;;;;;;;;;;;;
2023/09/22 13:41:34;;;;;;;;;;;;;;;;;;;;;
2023/09/22 13:45:17;;;;;;;3.53;0.90;;;16.80;99.90;;;;;;4777627;30;20042;-95
2023/09/22 13:48:18;;;;;;;3.60;1.00;;;16.80;99.90;;;;;;4860833;24;20397;-94
2023/09/22 13:51:17;;;;;;;3.15;0.98;;;16.80;99.90;;;;;;4796855;29;20039;-96
2023/09/22 13:54:18;;;;;;;3.72;0.80;;;16.80;99.90;;;;;;4804952;29;20057;-94
2023/09/22 13:57:56;;;;;;;;;;;;;;;;;;;;;
2023/09/22 14:01:22;;;;;;;;;;;;;;;;;;;;;
2023/09/22 14:04:27;;;;;;;1.73;0.80;;;16.80;99.90;;;;;;4815909;29;20058;-95
2023/09/22 14:07:32;;;;;;;4.13;0.95;;;16.80;99.90;;;;;;4801896;29;20146;-95
2023/09/22 14:10:49;;;;;;;;;;;;;;;;;;;;;
2023/09/22 14:13:44;;;;;;;2.65;0.80;;;16.80;99.90;;;;;;4809389;29;20174;-95
2023/09/22 14:16:36;;;;;;;2.70;1.00;;;16.80;99.90;;;;;;4799764;29;20027;-96
2023/09/22 14:19:49;;;;;;;;;;;;;;;;;;;;;
2023/09/22 14:39:02;;;;;;;2.10;0.70;;;16.80;99.90;;;;;;4776019;30;20064;-96
2023/09/22 14:41:58;;;;;;;4.43;0.85;;;16.90;99.90;;;;;;4821015;24;20154;-96
2023/09/22 14:48:26;;;;;;;3.58;0.90;;;16.90;99.90;;;;;;4815757;29;20050;-95
2023/09/22 14:51:32;;;;;;;1.13;0.80;;;16.80;99.90;;;;;;4778209;30;20071;-95
2023/09/22 14:54:43;;;;;;;;;;;;;;;;;;;;;
2023/09/22 14:57:50;;;;;;;;;;;;;;;;;;;;;
2023/09/22 15:01:19;;;;;;;4.05;1.08;;;16.90;99.90;;;;;;4751183;30;20056;-96
2023/09/22 15:04:44;;;;;;;4.68;1.33;;;16.90;99.90;;;;;;5245183;24;20081;-96
2023/09/22 15:26:51;;;;;;;5.03;1.00;;;16.90;99.90;;;;;;4756366;30;20028;-93
2023/09/22 15:30:04;;;;;;;4.05;1.20;;;16.80;99.90;;;;;;4742149;29;20039;-93
2023/09/22 15:33:05;;;;;;;3.90;1.10;;;16.80;99.90;;;;;;4771659;29;20104;-93
2023/09/22 15:35:51;;;;;;;5.28;1.30;;;16.80;99.90;;;;;;4766057;29;20054;-93
2023/09/22 15:39:09;;;;;;;4.35;0.90;;;16.80;99.90;;;;;;4787715;29;20081;-93
2023/09/22 15:41:47;;;;;;;;;;;16.80;99.90;;;;;;4783746;29;20095;-93
2023/09/22 15:55:34;;;;;;;;;;;;;;;;;;;;;
2023/09/22 15:58:23;;;;;;;3.47;1.00;;;16.70;99.90;;;;;;4796728;29;20031;-94
2023/09/22 16:01:34;;;;;;;;;;;;;;;;;;;;;
2023/09/22 16:04:27;;;;;;;4.68;1.30;;;16.70;99.90;;;;;;4782266;29;20038;-95
2023/09/22 16:07:25;;;;;;;3.95;1.00;;;16.80;99.90;;;;;;4768898;30;20047;-92
2023/09/22 16:11:21;;;;;;;;;;;;;;;;;;;;;
2023/09/22 16:14:27;;;;;;;4.07;1.30;;;16.70;99.90;;;;;;4766406;29;20091;-93
2023/09/22 16:17:31;;;;;;;4.15;1.30;;;16.70;99.90;;;;;;4768384;29;20088;-95
2023/09/22 16:21:03;;;;;;;3.80;1.17;;;16.70;99.90;;;;;;4782361;29;20042;-93
2023/09/22 16:24:11;;;;;;;4.90;1.45;;;16.70;99.90;;;;;;4717639;30;20047;-95
2023/09/22 16:27:43;;;;;;;4.90;1.38;;;16.70;99.90;;;;;;4765497;30;20075;-95
2023/09/22 16:30:19;;;;;;;3.35;1.10;;;16.70;99.90;;;;;;4763459;29;20051;-93
2023/09/22 16:33:25;;;;;;;4.25;1.20;;;16.60;99.90;;;;;;4769838;29;20051;-93
2023/09/22 16:36:12;;;;;;;4.72;1.27;;;16.60;99.90;;;;;;4783780;29;20491;-96
2023/09/22 16:39:25;;;;;;;4.97;1.30;;;16.60;99.90;;;;;;4783779;29;20111;-96
2023/09/22 16:42:50;;;;;;;3.80;1.00;;;16.60;99.90;;;;;;4772385;30;20085;-95
2023/09/22 16:46:09;;;;;;;4.10;1.15;;;16.50;99.90;;;;;;4770050;30;20042;-93
2023/09/22 16:49:28;;;;;;;6.43;1.30;;;16.50;99.90;;;;;;4786860;30;20047;-96
2023/09/22 16:53:01;;;;;;;;;;;;;;;;;;;;;
2023/09/22 17:02:33;;;;;;;3.95;1.30;;;16.50;99.90;;;;;;4759231;29;20103;-96
2023/09/22 17:05:38;;;;;;;4.75;1.50;;;16.40;99.90;;;;;;4777911;30;20051;-96
2023/09/22 17:08:34;;;;;;;;;;;;;;;;;;;;;
2023/09/22 17:12:14;;;;;;;3.55;1.40;;;16.40;99.90;;;;;;4787000;29;20065;-96
2023/09/22 17:15:47;;;;;;;4.45;1.60;;;16.40;99.90;;;;;;4784930;29;20047;-96
2023/09/22 17:18:48;;;;;;;;;;;;;;;;;;;;;
2023/09/22 17:22:01;;;;;;;4.50;1.40;;;16.30;99.90;;;;;;4771443;29;20132;-95
2023/09/22 17:24:53;;;;;;;4.97;1.55;;;16.20;99.90;;;;;;4793713;29;20030;-96
2023/09/22 17:28:06;;;;;;;5.50;1.40;;;16.20;99.90;;;;;;4744856;30;20051;-95
2023/09/22 17:30:51;;;;;;;;;;;;;;;;;;;;;
2023/09/22 17:34:02;;;;;;;;;;;;;;;;;;;;;
2023/09/22 17:36:52;;;;;;;5.32;1.50;;;16.20;99.90;;;;;;4776067;29;20129;-94
2023/09/22 17:40:06;;;;;;;;;;;;;;;;;;;;;
2023/09/22 17:43:46;;;;;;;;;;;;;;;;;;;;;
2023/09/22 17:46:56;;;;;;;3.10;1.30;;;16.10;99.90;;;;;;4769962;29;20131;-96
2023/09/22 17:49:45;;;;;;;4.25;1.20;;;16.10;99.90;;;;;;4781378;29;20050;-95
2023/09/22 17:52:25;;;;;;;4.07;1.45;;;16.00;99.90;;;;;;4779176;29;20047;-96
2023/09/22 17:55:00;;;;;;;4.82;1.77;;;16.00;99.90;;;;;;4744922;30;20060;-96
2023/09/22 17:57:37;;;;;;;5.03;1.40;;;16.00;99.90;;;;;;4763611;30;20063;-95
2023/09/22 18:00:23;;;;;;;;;;;16.00;99.90;;;;;;4761628;30;20345;-96
2023/09/22 18:04:06;;;;;;;4.97;1.50;;;16.00;99.90;;;;;;4748019;30;19953;-96
2023/09/22 18:07:15;;;;;;;6.43;2.33;;;15.90;99.90;;;;;;4802765;29;20035;-96
2023/09/22 18:10:14;;;;;;;5.50;1.92;;;15.90;99.90;;;;;;4796841;29;20073;-96
2023/09/22 18:13:48;;;;;;;6.13;1.83;;;15.90;99.90;;;;;;4759610;30;20464;-96
2023/09/22 18:16:36;;;;;;;5.28;1.80;;;15.90;99.90;;;;;;4793995;30;20043;-96
2023/09/22 18:19:14;;;;;;;3.90;1.63;;;15.80;99.90;;;;;;4793690;30;20047;-96
2023/09/22 18:22:04;;;;;;;4.70;1.40;;;15.80;99.90;;;;;;4765332;30;20055;-96
2023/09/22 18:25:02;;;;;;;5.78;1.45;;;15.80;99.90;;;;;;4768815;30;20151;-96
2023/09/22 18:27:57;;;;;;;4.60;1.30;;;15.70;99.90;;;;;;4777939;30;20047;-96
2023/09/22 18:59:46;;;;;;;3.47;1.20;;;15.50;99.90;;;;;;4786985;29;20085;-93
2023/09/22 19:03:34;;;;;;;;;;;;;;;;;;;;;
2023/09/22 20:25:47;;;;;;;5.03;2.28;;;14.90;99.90;;;;;;4718429;30;20090;-94
2023/09/22 20:35:10;;;;;;;6.50;3.13;;;14.90;99.90;;;;;;4754801;30;20085;-95
2023/09/22 20:43:54;;;;;;;;;;;;;;;;;;;;;
2023/09/22 20:48:36;;;;;;;7.30;3.42;;;14.90;99.90;;;;;;4702302;30;20128;-94
2023/09/22 21:50:42;;;;;;;6.85;2.60;;;14.70;99.90;;;;;;4776928;30;20039;-94
